Terminal Aerodrome Forecast
Issued by NWS La Crosse, WI

Home | Current Version | Previous Version | Text Only | Print | Product List | Glossary On
Versions: 1 2 3 4 5 6 7 8 9 10 11 12 13 14 15 16 17 18 19 20 21 22 23 24 25 26 27 28 29
000
FTUS43 KARX 031127
TAFRST
TAF
KRST 031127Z 0312/0412 19012KT P6SM SCT070 BKN250
     FM031500 22014G24KT P6SM SCT050 SCT250
     FM040000 30008KT P6SM -RA VCTS BKN040CB
      TEMPO 0401/0404 33025G35KT 1SM +TSRA OVC008CB
     FM040400 35012KT P6SM BKN040=

USA.gov is the U.S. government's official web portal to all federal, state and local government web resources and services.